Time;durP1;ratioP1;P1;durP2;ratioP2;P2;SDS_P1;SDS_P2;PMS_P1;PMS_P2;Temp;Humidity;BMP_temperature;BMP_pressure;BME280_temperature;BME280_humidity;BME280_pressure;Samples;Min_cycle;Max_cycle;Signal;HPM_P1;HPM_P2
2021/11/11 00:00:01;;;;;;;1094.65;999.90;;;;;;;20.38;54.05;102307.78;5055245;28;20078;-41
2021/11/11 00:02:27;;;;;;;1097.68;999.85;;;;;;;20.45;54.35;102331.22;5054734;28;20120;-41
2021/11/11 00:04:53;;;;;;;1113.00;999.90;;;;;;;20.45;54.54;102317.03;5055040;28;20124;-42
2021/11/11 00:07:19;;;;;;;1072.85;991.95;;;;;;;20.40;54.43;102320.03;5054976;28;20502;-42
2021/11/11 00:09:46;;;;;;;1103.50;999.90;;;;;;;20.42;54.12;102319.91;5054998;28;20028;-42
2021/11/11 00:12:12;;;;;;;1077.10;994.10;;;;;;;20.43;54.09;102330.47;5035308;28;20018;-41
2021/11/11 00:14:38;;;;;;;1079.75;995.97;;;;;;;20.45;53.97;102325.88;5035483;28;20029;-41
2021/11/11 00:17:04;;;;;;;1106.30;999.90;;;;;;;20.44;54.35;102320.66;5034805;28;20025;-40
2021/11/11 00:19:30;;;;;;;1102.32;999.90;;;;;;;20.44;53.82;102321.50;5035094;28;20513;-42
2021/11/11 00:21:57;;;;;;;1107.25;999.90;;;;;;;20.44;54.30;102325.97;5034585;28;20029;-42
2021/11/11 00:24:23;;;;;;;1095.68;999.90;;;;;;;20.43;54.37;102326.94;5034917;28;20079;-41
2021/11/11 00:26:49;;;;;;;1091.95;999.90;;;;;;;20.42;54.32;102327.91;5034808;28;20035;-41
2021/11/11 00:29:15;;;;;;;1094.20;999.90;;;;;;;20.43;53.97;102332.28;5034730;28;20072;-41
2021/11/11 00:31:41;;;;;;;1083.40;997.33;;;;;;;20.42;53.78;102327.91;5034682;28;20040;-41
2021/11/11 00:34:08;;;;;;;1076.88;992.85;;;;;;;20.42;54.03;102327.91;5034726;28;20036;-41
2021/11/11 00:36:34;;;;;;;1094.93;999.90;;;;;;;20.35;54.10;102324.88;5050422;28;20025;-41
2021/11/11 00:39:01;;;;;;;1078.82;994.65;;;;;;;20.42;54.13;102327.91;5034567;28;20025;-42
2021/11/11 00:41:27;;;;;;;1101.90;999.90;;;;;;;20.43;53.76;102334.94;5034647;28;20040;-41
2021/11/11 00:43:53;;;;;;;1117.40;999.90;;;;;;;20.40;53.90;102330.69;5033514;28;20036;-41
2021/11/11 00:46:19;;;;;;;1103.25;999.90;;;;;;;20.40;54.09;102330.69;5034761;28;20025;-41
2021/11/11 00:48:46;;;;;;;1113.43;999.90;;;;;;;20.31;53.64;102313.56;5034910;28;20362;-41
2021/11/11 00:51:12;;;;;;;1089.03;999.90;;;;;;;20.39;53.98;102322.81;5034537;28;20025;-41
2021/11/11 00:53:38;;;;;;;1094.85;999.90;;;;;;;20.38;54.06;102324.63;5034302;28;20021;-42
2021/11/11 00:56:04;;;;;;;1096.85;999.90;;;;;;;20.38;53.64;102323.78;5034616;28;20128;-41
2021/11/11 00:58:30;;;;;;;1090.93;999.25;;;;;;;20.36;53.99;102331.03;5034986;28;20029;-42
2021/11/11 01:01:00;;;;;;;1075.97;993.03;;;;;;;20.36;53.69;102329.25;5050063;28;20418;-42
2021/11/11 01:03:33;;;;;;;1090.43;999.85;;;;;;;20.35;53.68;102332.88;5034241;28;20026;-42
2021/11/11 01:05:59;;;;;;;1096.20;999.90;;;;;;;20.36;53.55;102339.91;5034503;28;20029;-41
2021/11/11 01:08:29;;;;;;;1088.43;999.28;;;;;;;20.35;54.00;102340.88;5049991;28;20394;-42
2021/11/11 01:10:55;;;;;;;1107.20;999.90;;;;;;;20.36;53.88;102336.38;5049979;28;20025;-42
2021/11/11 01:13:21;;;;;;;1097.03;999.90;;;;;;;20.37;53.87;102340.75;5035251;28;20025;-41
2021/11/11 01:15:48;;;;;;;1113.70;999.90;;;;;;;20.33;53.63;102345.47;5035056;28;20027;-42
2021/11/11 01:18:14;;;;;;;1112.55;999.90;;;;;;;20.35;53.99;102346.22;5034995;28;20029;-41
2021/11/11 01:20:40;;;;;;;1114.97;999.90;;;;;;;20.32;53.74;102352.66;5035131;28;20079;-41
2021/11/11 01:23:06;;;;;;;1096.30;999.90;;;;;;;20.31;54.00;102355.41;5035001;28;20101;-41
2021/11/11 01:25:33;;;;;;;1092.65;998.83;;;;;;;20.31;54.17;102355.41;5035156;28;20025;-42
2021/11/11 01:28:00;;;;;;;1083.32;996.45;;;;;;;20.29;53.99;102344.03;5050891;28;20051;-42
2021/11/11 01:30:26;;;;;;;1080.28;994.55;;;;;;;20.28;54.04;102356.47;5035223;28;20022;-43
2021/11/11 01:32:52;;;;;;;1114.82;999.90;;;;;;;20.26;53.71;102358.44;5035112;28;20029;-41
2021/11/11 01:35:18;;;;;;;1084.72;998.40;;;;;;;20.29;54.05;102362.69;5035267;28;20052;-41
2021/11/11 01:37:44;;;;;;;1100.75;999.90;;;;;;;20.27;53.79;102359.25;5035155;28;20095;-41
2021/11/11 01:40:11;;;;;;;1101.85;999.90;;;;;;;20.24;53.60;102362.19;5034721;28;20100;-41
2021/11/11 01:42:49;;;;;;;1112.22;999.90;;;;;;;20.26;53.94;102366.44;5052651;28;20033;-41
2021/11/11 01:45:15;;;;;;;1082.93;996.65;;;;;;;20.24;53.56;102364.84;5058306;28;20029;-41
2021/11/11 01:47:42;;;;;;;1079.20;995.58;;;;;;;20.24;53.50;102364.84;5058171;28;20090;-41
2021/11/11 01:50:09;;;;;;;1109.43;999.90;;;;;;;20.21;53.52;102373.91;5058553;28;20027;-42
2021/11/11 01:52:36;;;;;;;1073.07;991.30;;;;;;;20.23;53.50;102381.81;5059124;28;20350;-41
2021/11/11 01:55:04;;;;;;;1072.13;988.42;;;;;;;20.20;53.65;102382.03;5058768;28;20031;-41
2021/11/11 01:57:30;;;;;;;1098.82;999.90;;;;;;;20.20;53.56;102379.38;5059173;28;20090;-41
2021/11/11 01:59:56;;;;;;;1072.10;990.55;;;;;;;20.20;53.51;102382.03;5058551;28;20451;-42
2021/11/11 02:02:29;;;;;;;1073.88;992.63;;;;;;;20.05;53.74;102360.03;5057275;28;20112;-42
2021/11/11 02:04:56;;;;;;;1072.93;992.15;;;;;;;20.18;53.40;102382.16;5056973;28;20025;-41
2021/11/11 02:07:22;;;;;;;1094.63;999.90;;;;;;;20.14;53.42;102380.69;5058244;28;20447;-42
2021/11/11 02:09:49;;;;;;;1101.10;999.90;;;;;;;20.17;53.74;102385.78;5057792;28;20028;-41
2021/11/11 02:12:16;;;;;;;1099.07;999.90;;;;;;;20.17;53.76;102392.94;5057563;28;20355;-41
2021/11/11 02:14:42;;;;;;;1080.63;997.00;;;;;;;20.16;53.28;102388.56;5077038;28;20024;-41
2021/11/11 02:17:08;;;;;;;1092.60;999.47;;;;;;;20.16;53.90;102391.22;5077495;28;20047;-41
2021/11/11 02:19:35;;;;;;;1094.43;999.90;;;;;;;20.15;53.48;102401.06;5077441;28;20020;-41
2021/11/11 02:22:04;;;;;;;1108.05;999.90;;;;;;;20.12;53.63;102393.28;5077298;28;20036;-41
2021/11/11 02:24:33;;;;;;;1094.18;999.90;;;;;;;20.10;53.68;102403.22;5077811;28;20020;-41
2021/11/11 02:26:59;;;;;;;1100.15;999.90;;;;;;;20.12;53.76;102401.28;5078042;28;20049;-44
2021/11/11 02:29:25;;;;;;;1056.28;976.75;;;;;;;20.13;53.74;102400.34;5077935;28;20089;-41
2021/11/11 02:31:51;;;;;;;1057.57;978.25;;;;;;;20.12;53.66;102394.13;5077395;28;20028;-42
2021/11/11 02:34:21;;;;;;;1099.20;999.90;;;;;;;20.01;53.60;102387.91;5076888;28;20031;-41
2021/11/11 02:37:02;;;;;;;1078.22;995.88;;;;;;;20.08;53.31;102395.31;5076991;28;20020;-42
2021/11/11 02:39:32;;;;;;;1082.60;997.47;;;;;;;20.08;53.62;102403.31;5076948;28;20062;-41
2021/11/11 02:41:58;;;;;;;1073.10;991.50;;;;;;;20.10;53.16;102397.88;5076813;28;20043;-41
2021/11/11 02:44:26;;;;;;;1102.80;999.90;;;;;;;20.05;53.13;102394.69;5076641;28;20039;-41
2021/11/11 02:46:53;;;;;;;1069.00;987.78;;;;;;;20.08;53.61;102397.16;5076649;28;20055;-41
2021/11/11 02:49:19;;;;;;;1086.57;997.60;;;;;;;20.07;53.51;102393.59;5076718;28;20028;-41
2021/11/11 02:51:45;;;;;;;1085.22;998.35;;;;;;;20.08;53.59;102391.81;5076738;28;20025;-42
2021/11/11 02:54:11;;;;;;;1066.43;986.55;;;;;;;20.03;53.50;102392.16;5075375;28;20028;-41
2021/11/11 02:56:38;;;;;;;1036.20;961.63;;;;;;;20.05;53.40;102387.53;5076469;28;20028;-41
2021/11/11 02:59:05;;;;;;;1056.78;978.45;;;;;;;20.06;53.14;102385.75;5092413;28;20024;-41
2021/11/11 03:01:31;;;;;;;1065.60;985.47;;;;;;;20.01;53.40;102385.22;5076451;28;20029;-41
2021/11/11 03:03:57;;;;;;;1072.05;991.15;;;;;;;20.00;53.74;102391.53;5076566;28;20025;-41
2021/11/11 03:06:24;;;;;;;1065.93;986.20;;;;;;;20.02;53.57;102393.13;5075155;28;20021;-42
2021/11/11 03:08:50;;;;;;;1072.82;991.33;;;;;;;20.01;53.53;102382.56;5076215;28;20078;-41
2021/11/11 03:11:16;;;;;;;1039.22;964.20;;;;;;;20.01;53.21;102378.06;5076418;28;20154;-41
2021/11/11 03:13:42;;;;;;;1066.20;984.95;;;;;;;20.01;53.09;102379.91;5076356;28;20024;-41
2021/11/11 03:16:08;;;;;;;1079.65;996.03;;;;;;;19.97;53.26;102371.28;5076108;28;20024;-41
2021/11/11 03:18:35;;;;;;;1059.82;979.95;;;;;;;20.00;53.16;102379.03;5076290;28;20028;-41
2021/11/11 03:21:01;;;;;;;1043.82;966.42;;;;;;;19.97;53.01;102379.28;5076111;28;20020;-41
2021/11/11 03:23:27;;;;;;;1069.78;988.67;;;;;;;19.99;53.04;102385.34;5075941;28;20101;-41
2021/11/11 03:25:53;;;;;;;1061.78;982.65;;;;;;;20.00;52.99;102380.84;5075863;28;20035;-41
2021/11/11 03:28:19;;;;;;;1073.32;992.40;;;;;;;19.97;53.39;102381.94;5076037;28;20466;-41
2021/11/11 03:30:45;;;;;;;1069.00;988.80;;;;;;;19.96;53.21;102384.72;5076043;28;20020;-41
2021/11/11 03:33:11;;;;;;;1074.10;992.78;;;;;;;19.89;53.13;102381.63;5075870;28;20024;-41
2021/11/11 03:35:38;;;;;;;1083.45;999.00;;;;;;;19.93;53.27;102373.31;5075714;28;20020;-41
2021/11/11 03:38:05;;;;;;;1043.07;967.40;;;;;;;19.92;53.09;102374.28;5075867;28;20023;-41
2021/11/11 03:40:34;;;;;;;1067.20;987.05;;;;;;;19.91;53.29;102377.88;5091555;28;20028;-41
2021/11/11 03:43:01;;;;;;;1080.38;996.83;;;;;;;19.92;52.89;102386.75;5054588;28;20036;-41
2021/11/11 03:45:28;;;;;;;1060.22;981.08;;;;;;;19.91;52.97;102387.72;5055475;28;20025;-41
2021/11/11 03:47:54;;;;;;;1078.95;997.97;;;;;;;19.91;53.02;102393.03;5054709;28;20516;-40
2021/11/11 03:50:20;;;;;;;1072.60;991.90;;;;;;;19.90;53.27;102400.19;5055817;28;20037;-41
2021/11/11 03:52:47;;;;;;;1066.22;987.90;;;;;;;19.91;52.97;102398.38;5055420;28;20032;-42
2021/11/11 03:55:13;;;;;;;1062.65;983.13;;;;;;;19.90;52.90;102402.03;5055395;28;20025;-41
2021/11/11 03:57:40;;;;;;;1050.82;974.70;;;;;;;19.86;53.37;102400.53;5055291;28;20086;-41
2021/11/11 04:00:11;;;;;;;1065.88;986.25;;;;;;;19.86;53.27;102409.41;5055593;28;20025;-42
2021/11/11 04:02:37;;;;;;;1057.43;979.97;;;;;;;19.88;52.70;102403.91;5055466;28;20036;-41
2021/11/11 04:05:04;;;;;;;1088.43;999.90;;;;;;;19.87;52.99;102402.25;5054878;28;20332;-41
2021/11/11 04:07:30;;;;;;;1042.82;965.67;;;;;;;19.85;53.30;102406.84;5054968;28;20096;-41
2021/11/11 04:09:57;;;;;;;1080.57;995.75;;;;;;;19.83;53.02;102401.59;5055239;28;20059;-41
2021/11/11 04:12:23;;;;;;;1069.00;989.60;;;;;;;19.85;52.93;102407.69;5055189;28;20070;-40
2021/11/11 04:14:49;;;;;;;1075.07;993.15;;;;;;;19.82;53.02;102415.03;5055429;28;20044;-41
2021/11/11 04:17:15;;;;;;;1060.28;982.45;;;;;;;19.82;52.96;102415.03;5054937;28;20021;-41
2021/11/11 04:19:41;;;;;;;1072.05;991.00;;;;;;;19.80;52.86;102404.50;5055117;28;20029;-41
2021/11/11 04:22:08;;;;;;;1061.30;983.88;;;;;;;19.79;52.80;102408.13;5054919;28;20032;-42
2021/11/11 04:24:34;;;;;;;1076.35;994.78;;;;;;;19.82;52.83;102417.72;5054947;28;20025;-41
2021/11/11 04:27:07;;;;;;;1063.43;985.60;;;;;;;19.80;52.58;102414.31;5054708;28;20047;-41
2021/11/11 04:29:37;;;;;;;1061.97;983.47;;;;;;;19.77;53.08;102414.53;5054854;28;20519;-41
2021/11/11 04:32:06;;;;;;;1057.68;980.88;;;;;;;19.77;53.01;102417.19;5054845;28;20044;-41
2021/11/11 04:34:34;;;;;;;1057.38;980.20;;;;;;;19.78;52.99;102418.91;5054777;28;20025;-41
2021/11/11 04:47:12;;;;;;;1068.10;988.60;;;;;;;19.72;53.03;102430.84;5034529;28;20025;-41
2021/11/11 04:50:00;;;;;;;1050.65;974.75;;;;;;;19.57;52.77;102409.63;5034791;28;20025;-41
2021/11/11 04:52:32;;;;;;;1050.47;975.83;;;;;;;19.74;52.86;102428.94;5047425;28;20136;-41
2021/11/11 05:05:19;;;;;;;1049.70;973.85;;;;;;;19.66;52.63;102431.25;5054506;28;20029;-41
2021/11/11 05:07:46;;;;;;;1070.65;992.17;;;;;;;19.66;52.42;102423.25;5054152;28;20029;-41
2021/11/11 05:10:14;;;;;;;1057.45;981.25;;;;;;;19.65;52.35;102426.88;5054481;28;20021;-41
2021/11/11 05:12:40;;;;;;;1058.10;982.53;;;;;;;19.66;52.45;102424.09;5054366;28;20039;-41
2021/11/11 05:15:07;;;;;;;1083.82;998.50;;;;;;;19.61;52.65;102420.91;5054294;28;20554;-40
2021/11/11 05:17:33;;;;;;;1025.72;952.03;;;;;;;19.63;52.09;102426.13;5055199;28;20052;-41
2021/11/11 05:19:59;;;;;;;1047.82;972.58;;;;;;;19.62;52.14;102430.63;5058562;28;20036;-41
2021/11/11 05:22:25;;;;;;;1058.22;981.42;;;;;;;19.60;52.57;102427.22;5058246;28;20033;-41
2021/11/11 05:24:52;;;;;;;1055.13;978.95;;;;;;;19.62;52.21;102435.94;5058251;28;20064;-41
2021/11/11 05:27:22;;;;;;;1047.07;971.17;;;;;;;19.61;52.16;102434.22;5058191;28;20090;-41
2021/11/11 05:29:49;;;;;;;1055.70;979.38;;;;;;;19.61;52.38;102436.91;5058239;28;20017;-40
2021/11/11 05:32:15;;;;;;;1001.90;930.42;;;;;;;19.62;52.20;102435.09;5058318;28;20052;-41
2021/11/11 05:34:42;;;;;;;1061.05;984.80;;;;;;;19.61;51.97;102436.06;5058368;28;20025;-41
2021/11/11 05:37:11;;;;;;;1066.78;988.80;;;;;;;19.60;51.98;102432.56;5057878;28;20025;-41
2021/11/11 05:39:37;;;;;;;1047.85;972.70;;;;;;;19.56;51.97;102428.41;5058203;28;20028;-42
2021/11/11 05:42:03;;;;;;;1065.90;989.67;;;;;;;19.58;52.19;102429.16;5057856;28;20028;-41
2021/11/11 05:44:29;;;;;;;1057.93;980.78;;;;;;;19.52;51.85;102430.44;5057978;28;20032;-42
2021/11/11 05:46:56;;;;;;;1061.88;984.65;;;;;;;19.54;51.92;102422.31;5057923;28;20021;-41
2021/11/11 05:49:23;;;;;;;1068.20;990.55;;;;;;;19.46;51.70;102412.22;5057714;28;20446;-42
2021/11/11 05:51:50;;;;;;;1051.38;976.58;;;;;;;19.57;52.07;102427.44;5057904;28;20096;-41
2021/11/11 05:54:16;;;;;;;1050.45;974.97;;;;;;;19.55;51.80;102414.22;5057670;28;20031;-41
2021/11/11 05:56:42;;;;;;;1019.75;946.95;;;;;;;19.56;51.72;102425.75;5057845;28;20025;-41
2021/11/11 05:59:09;;;;;;;1067.22;991.10;;;;;;;19.54;51.84;102424.97;5057483;28;20078;-41
2021/11/11 06:01:35;;;;;;;1036.85;962.78;;;;;;;19.50;52.17;102423.50;5056747;28;20020;-41
2021/11/11 06:04:02;;;;;;;1055.82;979.75;;;;;;;19.48;52.18;102428.94;5057508;28;20029;-41
2021/11/11 06:06:29;;;;;;;1042.03;967.53;;;;;;;19.49;51.95;102443.09;5057717;28;20440;-41
2021/11/11 06:08:55;;;;;;;1028.60;954.55;;;;;;;19.49;51.74;102443.09;5057169;28;20032;-41
2021/11/11 06:11:22;;;;;;;1066.28;989.50;;;;;;;19.45;51.80;102441.63;5056671;28;20159;-42
2021/11/11 06:13:48;;;;;;;1038.97;962.83;;;;;;;19.44;51.95;102440.78;5056688;28;20098;-42
2021/11/11 06:16:14;;;;;;;1031.40;957.83;;;;;;;19.47;51.69;102447.69;5057424;28;20572;-41
2021/11/11 06:18:41;;;;;;;1058.30;982.42;;;;;;;19.48;51.63;102444.06;5056224;28;20454;-41
2021/11/11 06:21:07;;;;;;;1019.90;947.72;;;;;;;19.50;51.65;102450.16;5057231;28;20442;-42
2021/11/11 06:23:34;;;;;;;1046.03;969.88;;;;;;;19.47;51.57;102447.69;5057082;28;20485;-41
2021/11/11 06:26:00;;;;;;;1044.88;969.38;;;;;;;19.44;51.53;102439.94;5057262;28;20049;-41
2021/11/11 06:28:27;;;;;;;1026.80;954.50;;;;;;;19.47;51.31;102440.56;5056990;28;20028;-41
2021/11/11 06:30:53;;;;;;;1039.07;965.63;;;;;;;19.43;51.53;102439.06;5057048;28;20025;-41
2021/11/11 06:33:19;;;;;;;1044.53;969.63;;;;;;;19.40;51.70;102433.09;5057117;28;20350;-41
2021/11/11 06:35:45;;;;;;;1035.25;961.15;;;;;;;19.41;51.80;102443.66;5056337;28;20025;-41
2021/11/11 06:38:11;;;;;;;1052.95;976.88;;;;;;;19.40;51.44;102438.44;5056736;28;20092;-42
2021/11/11 06:40:37;;;;;;;1039.50;965.85;;;;;;;19.36;51.79;102437.78;5056975;28;20021;-41
2021/11/11 06:43:05;;;;;;;1051.60;976.70;;;;;;;19.38;51.75;102439.41;5056764;28;20025;-41
2021/11/11 06:45:36;;;;;;;1012.72;941.72;;;;;;;19.36;51.75;102438.66;5056253;28;20032;-41
2021/11/11 06:48:02;;;;;;;1035.55;961.97;;;;;;;19.34;51.42;102440.56;5056843;28;20426;-41
2021/11/11 06:50:29;;;;;;;1039.40;965.97;;;;;;;19.36;51.78;102435.13;5056621;28;20082;-41
2021/11/11 06:52:55;;;;;;;1035.40;962.88;;;;;;;19.35;51.77;102442.28;5056536;28;20028;-41
2021/11/11 06:55:22;;;;;;;1060.13;984.35;;;;;;;19.28;51.65;102438.34;5056732;28;20365;-41
2021/11/11 06:57:48;;;;;;;1061.57;985.92;;;;;;;19.32;51.73;102438.97;5056712;28;20043;-41
2021/11/11 07:00:14;;;;;;;1037.93;964.05;;;;;;;19.31;51.82;102440.78;5056407;28;20021;-41
2021/11/11 07:02:40;;;;;;;1052.95;978.17;;;;;;;19.28;51.91;102438.34;5056375;28;20112;-41
2021/11/11 07:05:07;;;;;;;1024.35;951.40;;;;;;;19.29;51.75;102450.69;5056398;28;20025;-41
2021/11/11 07:07:33;;;;;;;1027.05;955.05;;;;;;;19.25;51.46;102441.19;5056487;28;20037;-41
2021/11/11 07:09:59;;;;;;;1035.82;963.03;;;;;;;19.24;51.57;102446.63;5056353;28;20024;-42
2021/11/11 07:12:26;;;;;;;1041.60;968.63;;;;;;;19.26;51.70;102442.03;5056334;28;20051;-42
2021/11/11 07:14:52;;;;;;;1026.13;953.88;;;;;;;19.22;51.63;102444.06;5056204;28;20029;-41
2021/11/11 07:17:18;;;;;;;1035.53;962.20;;;;;;;19.23;51.40;102444.94;5038748;28;20048;-41
2021/11/11 07:19:44;;;;;;;1048.93;974.42;;;;;;;19.23;51.55;102437.78;5056305;28;20025;-41
2021/11/11 07:22:10;;;;;;;1048.30;974.15;;;;;;;19.23;51.72;102440.47;5056181;28;20025;-41
2021/11/11 07:24:36;;;;;;;1025.13;952.95;;;;;;;19.20;51.87;102446.00;5056022;28;20029;-41
2021/11/11 07:27:03;;;;;;;1027.40;954.45;;;;;;;19.19;51.60;102444.31;5056017;28;20465;-41
2021/11/11 07:29:29;;;;;;;1045.40;970.47;;;;;;;19.18;51.49;102447.91;5055966;28;20029;-41
2021/11/11 07:31:56;;;;;;;1036.35;963.35;;;;;;;19.19;51.67;102445.16;5055927;28;20354;-41
2021/11/11 07:34:23;;;;;;;1046.50;971.20;;;;;;;19.19;51.31;102446.97;5055850;28;20518;-41
2021/11/11 07:36:51;;;;;;;1045.47;971.50;;;;;;;19.16;51.35;102453.34;5055827;28;20081;-41
2021/11/11 07:39:18;;;;;;;1044.38;969.65;;;;;;;19.14;51.67;102447.28;5054603;28;20097;-41
2021/11/11 07:41:45;;;;;;;1047.97;973.25;;;;;;;19.14;51.47;102449.09;5055257;28;20024;-41
2021/11/11 07:44:12;;;;;;;1024.30;953.78;;;;;;;19.14;51.40;102441.09;5071559;28;20028;-41
2021/11/11 07:46:39;;;;;;;1035.05;961.83;;;;;;;19.11;51.48;102447.47;5055600;28;20473;-41
2021/11/11 07:49:05;;;;;;;1007.58;937.95;;;;;;;19.14;51.68;102452.59;5055497;28;20029;-41
2021/11/11 07:51:32;;;;;;;1025.78;953.65;;;;;;;19.12;51.47;102445.69;5055401;28;20365;-41
2021/11/11 07:54:00;;;;;;;1030.93;958.63;;;;;;;19.13;51.57;102450.91;5055419;28;20028;-41
2021/11/11 07:56:26;;;;;;;1061.43;985.92;;;;;;;19.11;51.33;102451.97;5055456;28;20033;-41
2021/11/11 07:58:53;;;;;;;1015.67;944.70;;;;;;;19.12;51.35;102448.34;5054399;28;20025;-42
2021/11/11 08:01:19;;;;;;;1033.30;961.70;;;;;;;19.10;51.43;102440.47;5055174;28;20021;-41
2021/11/11 08:03:46;;;;;;;1040.30;966.30;;;;;;;19.06;51.38;102446.09;5055494;28;20021;-41
2021/11/11 08:06:12;;;;;;;1039.55;964.95;;;;;;;19.06;51.59;102438.97;5055326;28;20442;-42
2021/11/11 08:08:39;;;;;;;1008.67;938.42;;;;;;;19.09;51.41;102443.22;5055178;28;20074;-41
2021/11/11 08:11:06;;;;;;;1017.83;946.92;;;;;;;19.06;51.23;102438.09;5070744;28;20438;-41
2021/11/11 08:13:32;;;;;;;1030.50;957.47;;;;;;;19.05;51.40;102434.59;5055212;28;20453;-41
2021/11/11 08:15:59;;;;;;;1038.15;965.38;;;;;;;19.07;51.38;102429.16;5055255;28;20033;-41
2021/11/11 08:18:25;;;;;;;1047.28;972.75;;;;;;;19.08;51.49;102430.84;5054227;28;20029;-41
2021/11/11 08:20:53;;;;;;;1013.28;942.13;;;;;;;19.01;51.55;102425.13;5053846;28;20028;-41
2021/11/11 08:23:20;;;;;;;1001.88;931.78;;;;;;;19.06;51.40;102427.44;5070374;28;20031;-41
2021/11/11 08:25:47;;;;;;;1005.50;934.85;;;;;;;19.01;51.27;102427.78;5055091;28;20343;-41
2021/11/11 08:28:21;;;;;;;1024.05;951.72;;;;;;;18.99;51.28;102427.88;5054961;28;20339;-42
2021/11/11 08:30:48;;;;;;;1010.63;939.80;;;;;;;19.02;51.34;102423.31;5055048;28;20052;-41
2021/11/11 08:33:14;;;;;;;1012.80;941.47;;;;;;;18.98;51.44;102414.69;5054872;28;20025;-41
2021/11/11 08:35:41;;;;;;;1007.75;937.67;;;;;;;18.97;51.40;102412.97;5054951;28;20036;-41
2021/11/11 08:38:07;;;;;;;1013.60;942.47;;;;;;;18.96;51.15;102409.47;5054740;28;20036;-41
2021/11/11 08:40:33;;;;;;;1002.30;933.33;;;;;;;18.91;51.24;102394.75;5054533;28;20401;-41
2021/11/11 08:43:00;;;;;;;1004.40;934.25;;;;;;;18.89;51.54;102392.19;5054607;28;20036;-41
2021/11/11 08:45:27;;;;;;;993.22;923.95;;;;;;;18.97;51.33;102407.63;5053715;28;20403;-41
2021/11/11 08:47:53;;;;;;;997.22;928.78;;;;;;;18.96;51.26;102395.31;5053787;28;20020;-41
2021/11/11 08:50:20;;;;;;;1012.33;941.03;;;;;;;18.94;51.47;102398.06;5054412;28;20104;-42
2021/11/11 08:52:53;;;;;;;1011.13;940.30;;;;;;;18.94;51.15;102389.25;5068689;28;20024;-41
2021/11/11 08:55:21;;;;;;;;;;;;;;;19.13;50.83;102391.44;5075250;28;20024;-41
2021/11/11 08:57:47;;;;;;;948.08;884.40;;;;;;;18.95;51.07;102386.44;5074679;28;20334;-41
2021/11/11 09:00:17;;;;;;;982.20;916.15;;;;;;;18.83;51.16;102363.31;5074660;28;20028;-41
2021/11/11 09:02:47;;;;;;;982.65;915.30;;;;;;;18.89;51.40;102383.38;5073458;28;20040;-41
2021/11/11 09:05:14;;;;;;;999.97;931.45;;;;;;;18.89;51.06;102376.22;5090443;28;20024;-41
2021/11/11 09:07:40;;;;;;;996.83;928.50;;;;;;;18.85;51.17;102381.84;5073563;28;20028;-41
2021/11/11 09:10:18;;;;;;;959.30;894.50;;;;;;;18.86;51.24;102379.09;5074606;28;20016;-42
2021/11/11 09:12:46;;;;;;;960.88;896.25;;;;;;;18.86;51.38;102373.78;5074308;28;20031;-41
2021/11/11 09:15:13;;;;;;;974.60;908.67;;;;;;;18.89;51.39;102372.72;5074390;28;20039;-41
2021/11/11 09:17:39;;;;;;;1003.60;934.95;;;;;;;18.88;51.16;102371.84;5046363;28;20025;-41
2021/11/11 09:20:11;;;;;;;988.42;919.63;;;;;;;18.82;51.55;102374.94;5034401;28;20045;-41
2021/11/11 09:22:37;;;;;;;993.13;924.55;;;;;;;18.82;51.29;102374.09;5034095;28;20022;-41
2021/11/11 09:25:05;;;;;;;992.92;925.33;;;;;;;18.82;51.18;102377.59;5034316;28;20032;-41
2021/11/11 09:27:32;;;;;;;1005.42;937.15;;;;;;;18.78;51.36;102370.78;5034437;28;20362;-41
2021/11/11 09:29:59;;;;;;;994.50;926.17;;;;;;;18.80;51.20;102379.50;5034386;28;20026;-41
2021/11/11 09:32:25;;;;;;;998.95;931.47;;;;;;;18.76;51.11;102370.88;5034124;28;20044;-41
2021/11/11 09:34:51;;;;;;;1001.28;932.55;;;;;;;18.73;51.16;102362.25;5033342;28;20032;-41
2021/11/11 09:37:17;;;;;;;974.78;907.92;;;;;;;18.75;51.37;102366.50;5034225;28;20017;-41
2021/11/11 09:39:44;;;;;;;979.63;913.60;;;;;;;18.68;51.35;102349.25;5034181;28;20029;-41
2021/11/11 09:42:10;;;;;;;988.53;922.45;;;;;;;18.77;51.23;102369.06;5046703;28;20064;-41
2021/11/11 09:44:36;;;;;;;971.08;905.20;;;;;;;18.78;51.30;102363.63;5054128;28;20021;-41
2021/11/11 09:47:03;;;;;;;972.80;906.03;;;;;;;18.76;51.10;102356.69;5053082;28;20090;-41
2021/11/11 09:49:29;;;;;;;981.97;914.03;;;;;;;18.73;51.24;102362.25;5054089;28;20032;-41
2021/11/11 09:51:55;;;;;;;983.17;915.60;;;;;;;18.72;51.35;102366.69;5053761;28;20107;-41
2021/11/11 09:58:34;;;;;;;1015.15;944.45;;;;;;;18.73;51.20;102368.41;5053972;28;20399;-42
2021/11/11 09:59:54;;;;;;;985.00;918.55;;;;;;;18.69;51.44;102361.59;5054056;28;20118;-41
2021/11/11 10:02:20;;;;;;;972.88;906.03;;;;;;;18.69;51.38;102374.03;5053605;28;20415;-41
2021/11/11 10:04:47;;;;;;;986.50;919.65;;;;;;;18.70;51.34;102368.63;5056808;28;20035;-41
2021/11/11 10:07:13;;;;;;;982.10;916.42;;;;;;;18.66;51.36;102368.94;5057504;28;20029;-41
2021/11/11 10:09:45;;;;;;;969.75;905.03;;;;;;;18.63;51.24;102362.00;5057442;28;20021;-41
2021/11/11 10:12:21;;;;;;;949.75;886.55;;;;;;;18.71;51.08;102366.81;5056613;28;20116;-41
2021/11/11 10:14:47;;;;;;;953.45;890.25;;;;;;;18.70;51.11;102370.44;5057831;28;20029;-41
2021/11/11 10:17:14;;;;;;;971.72;906.20;;;;;;;18.65;51.49;102364.56;5057223;28;20053;-41
2021/11/11 10:19:42;;;;;;;998.55;930.15;;;;;;;18.68;51.13;102359.03;5057415;28;20025;-42
2021/11/11 10:22:19;;;;;;;980.17;913.80;;;;;;;18.65;51.06;102365.41;5057084;28;20035;-42
2021/11/11 10:25:12;;;;;;;970.38;905.70;;;;;;;18.58;51.56;102365.00;5056220;28;20112;-41
2021/11/11 10:27:43;;;;;;;957.30;892.55;;;;;;;18.59;51.19;102364.03;5057293;28;20028;-41
2021/11/11 10:30:21;;;;;;;925.60;864.50;;;;;;;18.58;51.31;102372.09;5057194;28;20021;-41
2021/11/11 10:32:52;;;;;;;935.10;873.28;;;;;;;18.58;51.22;102370.31;5056945;28;20027;-41
2021/11/11 10:35:21;;;;;;;970.88;906.78;;;;;;;18.58;51.37;102365.00;5057354;28;20036;-41
2021/11/11 10:38:16;;;;;;;957.90;893.58;;;;;;;18.57;51.29;102371.25;5056928;28;20045;-41
2021/11/11 10:40:45;;;;;;;929.30;868.75;;;;;;;18.60;51.46;102368.41;5056950;28;20336;-41
2021/11/11 10:43:16;;;;;;;958.45;895.88;;;;;;;18.62;51.27;102377.13;5056667;28;20025;-41
2021/11/11 10:45:44;;;;;;;947.73;885.63;;;;;;;18.59;51.48;102374.66;5056885;28;20023;-41
2021/11/11 10:48:11;;;;;;;944.05;881.28;;;;;;;18.58;51.36;102372.09;5056870;28;20031;-41
2021/11/11 10:50:42;;;;;;;950.28;887.35;;;;;;;18.54;51.54;102370.63;5056776;28;20048;-41
2021/11/11 10:53:09;;;;;;;969.22;905.05;;;;;;;18.52;51.53;102375.19;5056395;28;20086;-41
2021/11/11 10:55:40;;;;;;;963.78;898.55;;;;;;;18.52;51.35;102376.03;5056709;28;20079;-41
2021/11/11 10:58:11;;;;;;;945.72;883.05;;;;;;;18.45;51.61;102373.91;5056685;28;20036;-41
2021/11/11 11:00:49;;;;;;;943.33;881.38;;;;;;;18.51;51.25;102384.13;5039138;28;20048;-41
2021/11/11 11:03:27;;;;;;;942.10;880.10;;;;;;;18.51;51.14;102385.00;5056223;28;20032;-41
2021/11/11 11:06:01;;;;;;;923.25;863.42;;;;;;;18.48;51.34;102379.88;5056489;28;20022;-41
2021/11/11 11:08:29;;;;;;;956.03;893.38;;;;;;;18.52;51.39;102384.03;5055561;28;20027;-40
2021/11/11 11:10:59;;;;;;;946.17;883.15;;;;;;;18.52;51.33;102388.50;5056273;28;20021;-41
2021/11/11 11:13:31;;;;;;;938.78;877.05;;;;;;;18.53;51.17;102384.88;5056348;28;20025;-41